sensor_id;sensor_type;location;lat;lon;timestamp;pressure;altitude;pressure_sealevel;temperature;humidity
64298;BME280;50639;53.270;7.956;2023-04-06T00:01:12;101989.66;;;1.40;76.99
64298;BME280;50639;53.270;7.956;2023-04-06T00:03:37;101988.69;;;1.41;76.45
64298;BME280;50639;53.270;7.956;2023-04-06T00:06:03;101980.16;;;1.38;77.44
64298;BME280;50639;53.270;7.956;2023-04-06T00:08:29;101987.22;;;1.37;77.55
64298;BME280;50639;53.270;7.956;2023-04-06T00:10:54;101983.75;;;1.37;77.77
64298;BME280;50639;53.270;7.956;2023-04-06T00:13:21;101978.66;;;1.34;78.56
64298;BME280;50639;53.270;7.956;2023-04-06T00:15:46;101985.34;;;1.39;77.48
64298;BME280;50639;53.270;7.956;2023-04-06T00:18:12;101973.41;;;1.34;76.69
64298;BME280;50639;53.270;7.956;2023-04-06T00:20:37;101979.22;;;1.39;76.77
64298;BME280;50639;53.270;7.956;2023-04-06T00:23:03;101980.91;;;1.40;77.15
64298;BME280;50639;53.270;7.956;2023-04-06T00:25:28;101969.72;;;1.36;76.99
64298;BME280;50639;53.270;7.956;2023-04-06T00:27:54;101974.81;;;1.39;77.35
64298;BME280;50639;53.270;7.956;2023-04-06T00:30:20;101965.41;;;1.35;78.29
64298;BME280;50639;53.270;7.956;2023-04-06T00:32:45;101966.34;;;1.34;77.67
64298;BME280;50639;53.270;7.956;2023-04-06T00:35:10;101965.50;;;1.34;78.41
64298;BME280;50639;53.270;7.956;2023-04-06T00:37:36;101955.22;;;1.31;77.65
64298;BME280;50639;53.270;7.956;2023-04-06T00:40:02;101962.25;;;1.30;77.70
64298;BME280;50639;53.270;7.956;2023-04-06T00:42:28;101956.25;;;1.28;77.20
64298;BME280;50639;53.270;7.956;2023-04-06T00:44:55;101956.44;;;1.25;78.50
64298;BME280;50639;53.270;7.956;2023-04-06T00:47:22;101939.28;;;1.20;78.28
64298;BME280;50639;53.270;7.956;2023-04-06T00:49:48;101943.69;;;1.19;77.39
64298;BME280;50639;53.270;7.956;2023-04-06T00:52:14;101943.50;;;1.22;76.76
64298;BME280;50639;53.270;7.956;2023-04-06T00:54:42;101936.84;;;1.17;76.52
64298;BME280;50639;53.270;7.956;2023-04-06T00:57:11;101941.59;;;1.11;76.37
64298;BME280;50639;53.270;7.956;2023-04-06T00:59:36;101936.94;;;1.02;76.14
64298;BME280;50639;53.270;7.956;2023-04-06T01:02:06;101931.13;;;0.97;76.40
64298;BME280;50639;53.270;7.956;2023-04-06T01:04:39;101930.91;;;1.00;76.66
64298;BME280;50639;53.270;7.956;2023-04-06T01:07:09;101934.72;;;0.96;78.18
64298;BME280;50639;53.270;7.956;2023-04-06T01:09:42;101925.53;;;0.89;77.89
64298;BME280;50639;53.270;7.956;2023-04-06T01:12:15;101919.31;;;0.90;77.66
64298;BME280;50639;53.270;7.956;2023-04-06T01:14:40;101911.66;;;0.87;77.12
64298;BME280;50639;53.270;7.956;2023-04-06T01:17:08;101906.50;;;0.86;77.97
64298;BME280;50639;53.270;7.956;2023-04-06T01:19:34;101908.38;;;0.84;77.09
64298;BME280;50639;53.270;7.956;2023-04-06T01:22:01;101909.97;;;0.86;77.04
64298;BME280;50639;53.270;7.956;2023-04-06T01:24:29;101906.06;;;0.79;76.63
64298;BME280;50639;53.270;7.956;2023-04-06T01:27:05;101905.22;;;0.79;76.92
64298;BME280;50639;53.270;7.956;2023-04-06T01:29:43;101909.72;;;0.77;76.44
64298;BME280;50639;53.270;7.956;2023-04-06T01:32:11;101901.28;;;0.71;76.52
64298;BME280;50639;53.270;7.956;2023-04-06T01:34:45;101904.41;;;0.64;77.15
64298;BME280;50639;53.270;7.956;2023-04-06T01:37:11;101891.84;;;0.55;77.49
64298;BME280;50639;53.270;7.956;2023-04-06T01:39:36;101904.72;;;0.59;78.71
64298;BME280;50639;53.270;7.956;2023-04-06T01:42:04;101893.53;;;0.56;79.58
64298;BME280;50639;53.270;7.956;2023-04-06T01:44:32;101891.66;;;0.58;79.04
64298;BME280;50639;53.270;7.956;2023-04-06T01:47:06;101890.63;;;0.60;78.61
64298;BME280;50639;53.270;7.956;2023-04-06T01:49:32;101895.91;;;0.60;79.04
64298;BME280;50639;53.270;7.956;2023-04-06T01:51:58;101903.66;;;0.62;80.73
64298;BME280;50639;53.270;7.956;2023-04-06T01:54:24;101893.44;;;0.57;80.37
64298;BME280;50639;53.270;7.956;2023-04-06T01:56:55;101888.28;;;0.56;80.27
64298;BME280;50639;53.270;7.956;2023-04-06T01:59:29;101889.88;;;0.58;80.57
64298;BME280;50639;53.270;7.956;2023-04-06T02:01:56;101881.25;;;0.56;82.55
64298;BME280;50639;53.270;7.956;2023-04-06T02:04:24;101880.22;;;0.59;80.93
64298;BME280;50639;53.270;7.956;2023-04-06T02:06:58;101873.19;;;0.59;79.20
64298;BME280;50639;53.270;7.956;2023-04-06T02:09:26;101877.50;;;0.60;78.84
64298;BME280;50639;53.270;7.956;2023-04-06T02:11:55;101874.88;;;0.60;78.80
64298;BME280;50639;53.270;7.956;2023-04-06T02:14:25;101873.38;;;0.56;78.32
64298;BME280;50639;53.270;7.956;2023-04-06T02:16:53;101874.31;;;0.55;78.27
64298;BME280;50639;53.270;7.956;2023-04-06T02:19:19;101864.19;;;0.49;77.89
64298;BME280;50639;53.270;7.956;2023-04-06T02:21:44;101866.91;;;0.48;77.91
64298;BME280;50639;53.270;7.956;2023-04-06T02:24:10;101867.94;;;0.45;78.39
64298;BME280;50639;53.270;7.956;2023-04-06T02:26:36;101868.69;;;0.47;78.63
64298;BME280;50639;53.270;7.956;2023-04-06T02:29:01;101854.69;;;0.34;80.70
64298;BME280;50639;53.270;7.956;2023-04-06T02:31:28;101866.38;;;0.43;80.95
64298;BME280;50639;53.270;7.956;2023-04-06T02:33:53;101868.06;;;0.44;81.85
64298;BME280;50639;53.270;7.956;2023-04-06T02:36:19;101865.13;;;0.48;80.79
64298;BME280;50639;53.270;7.956;2023-04-06T02:38:45;101860.72;;;0.49;79.64
64298;BME280;50639;53.270;7.956;2023-04-06T02:41:11;101852.94;;;0.47;78.96
64298;BME280;50639;53.270;7.956;2023-04-06T02:43:37;101862.59;;;0.47;78.64
64298;BME280;50639;53.270;7.956;2023-04-06T02:46:09;101849.69;;;0.44;79.03
64298;BME280;50639;53.270;7.956;2023-04-06T02:48:37;101851.84;;;0.37;79.09
64298;BME280;50639;53.270;7.956;2023-04-06T02:51:03;101851.13;;;0.35;79.14
64298;BME280;50639;53.270;7.956;2023-04-06T02:53:30;101855.63;;;0.33;80.50
64298;BME280;50639;53.270;7.956;2023-04-06T02:55:55;101850.38;;;0.33;80.57
64298;BME280;50639;53.270;7.956;2023-04-06T02:58:24;101852.44;;;0.28;82.55
64298;BME280;50639;53.270;7.956;2023-04-06T03:00:53;101842.16;;;0.25;82.49
64298;BME280;50639;53.270;7.956;2023-04-06T03:03:19;101849.81;;;0.28;81.69
64298;BME280;50639;53.270;7.956;2023-04-06T03:05:45;101843.53;;;0.30;80.25
64298;BME280;50639;53.270;7.956;2023-04-06T03:08:12;101849.72;;;0.29;80.50
64298;BME280;50639;53.270;7.956;2023-04-06T03:10:45;101839.28;;;0.28;78.98
64298;BME280;50639;53.270;7.956;2023-04-06T03:13:11;101851.81;;;0.24;79.08
64298;BME280;50639;53.270;7.956;2023-04-06T03:15:57;101846.94;;;0.18;80.13
64298;BME280;50639;53.270;7.956;2023-04-06T03:18:24;101849.69;;;0.17;81.10
64298;BME280;50639;53.270;7.956;2023-04-06T03:20:51;101857.56;;;0.17;80.99
64298;BME280;50639;53.270;7.956;2023-04-06T03:23:19;101853.88;;;0.19;81.21
64298;BME280;50639;53.270;7.956;2023-04-06T03:25:49;101847.91;;;0.17;80.56
64298;BME280;50639;53.270;7.956;2023-04-06T03:28:17;101840.81;;;0.18;82.19
64298;BME280;50639;53.270;7.956;2023-04-06T03:30:50;101844.59;;;0.14;83.30
64298;BME280;50639;53.270;7.956;2023-04-06T03:33:22;101845.16;;;0.19;81.41
64298;BME280;50639;53.270;7.956;2023-04-06T03:35:53;101845.53;;;0.13;82.84
64298;BME280;50639;53.270;7.956;2023-04-06T03:38:19;101837.75;;;0.11;82.82
64298;BME280;50639;53.270;7.956;2023-04-06T03:40:47;101837.84;;;0.10;82.53
64298;BME280;50639;53.270;7.956;2023-04-06T03:43:13;101846.56;;;0.10;83.00
64298;BME280;50639;53.270;7.956;2023-04-06T03:45:39;101846.47;;;0.12;82.83
64298;BME280;50639;53.270;7.956;2023-04-06T03:48:05;101848.34;;;0.10;82.55
64298;BME280;50639;53.270;7.956;2023-04-06T03:50:34;101843.09;;;0.10;82.47
64298;BME280;50639;53.270;7.956;2023-04-06T03:52:59;101840.47;;;0.10;82.53
64298;BME280;50639;53.270;7.956;2023-04-06T03:55:27;101835.88;;;0.13;81.42
64298;BME280;50639;53.270;7.956;2023-04-06T03:57:52;101836.63;;;0.15;80.64
64298;BME280;50639;53.270;7.956;2023-04-06T04:00:18;101837.47;;;0.16;80.05
64298;BME280;50639;53.270;7.956;2023-04-06T04:02:43;101831.47;;;0.14;79.97
64298;BME280;50639;53.270;7.956;2023-04-06T04:05:09;101834.94;;;0.14;79.52
64298;BME280;50639;53.270;7.956;2023-04-06T04:07:36;101826.72;;;0.06;79.40
64298;BME280;50639;53.270;7.956;2023-04-06T04:10:01;101829.53;;;0.03;79.10
64298;BME280;50639;53.270;7.956;2023-04-06T04:12:28;101830.56;;;0.00;79.02
64298;BME280;50639;53.270;7.956;2023-04-06T04:14:56;101827.47;;;-0.06;79.28
64298;BME280;50639;53.270;7.956;2023-04-06T04:17:22;101829.34;;;-0.08;79.49
64298;BME280;50639;53.270;7.956;2023-04-06T04:19:47;101837.72;;;-0.16;79.30
64298;BME280;50639;53.270;7.956;2023-04-06T04:22:14;101831.34;;;-0.26;81.37
64298;BME280;50639;53.270;7.956;2023-04-06T04:24:41;101831.94;;;-0.21;79.76
64298;BME280;50639;53.270;7.956;2023-04-06T04:27:06;101834.56;;;-0.21;80.77
64298;BME280;50639;53.270;7.956;2023-04-06T04:29:34;101839.16;;;-0.24;80.40
64298;BME280;50639;53.270;7.956;2023-04-06T04:32:03;101825.94;;;-0.23;79.72
64298;BME280;50639;53.270;7.956;2023-04-06T04:34:29;101834.75;;;-0.24;79.57
64298;BME280;50639;53.270;7.956;2023-04-06T04:36:56;101824.22;;;-0.24;79.72
64298;BME280;50639;53.270;7.956;2023-04-06T04:39:41;101834.56;;;-0.21;78.91
64298;BME280;50639;53.270;7.956;2023-04-06T04:42:08;101820.84;;;-0.26;79.65
64298;BME280;50639;53.270;7.956;2023-04-06T04:44:36;101827.06;;;-0.27;79.39
64298;BME280;50639;53.270;7.956;2023-04-06T04:47:03;101824.31;;;-0.25;79.58
64298;BME280;50639;53.270;7.956;2023-04-06T04:49:38;101822.63;;;-0.26;79.06
64298;BME280;50639;53.270;7.956;2023-04-06T04:52:04;101825.25;;;-0.26;79.50
64298;BME280;50639;53.270;7.956;2023-04-06T04:54:39;101826.94;;;-0.25;79.78
64298;BME280;50639;53.270;7.956;2023-04-06T04:57:08;101823.41;;;-0.24;78.61
64298;BME280;50639;53.270;7.956;2023-04-06T04:59:40;101818.22;;;-0.26;79.05
64298;BME280;50639;53.270;7.956;2023-04-06T05:02:14;101827.06;;;-0.27;79.48
64298;BME280;50639;53.270;7.956;2023-04-06T05:04:50;101820.69;;;-0.23;78.97
64298;BME280;50639;53.270;7.956;2023-04-06T05:07:20;101817.03;;;-0.20;78.26
64298;BME280;50639;53.270;7.956;2023-04-06T05:09:46;101829.13;;;-0.18;77.70
64298;BME280;50639;53.270;7.956;2023-04-06T05:12:12;101835.19;;;-0.17;77.94
64298;BME280;50639;53.270;7.956;2023-04-06T05:14:48;101829.22;;;-0.19;78.00
64298;BME280;50639;53.270;7.956;2023-04-06T05:17:16;101835.00;;;-0.14;78.10
64298;BME280;50639;53.270;7.956;2023-04-06T05:19:42;101840.91;;;-0.11;78.54
64298;BME280;50639;53.270;7.956;2023-04-06T05:22:09;101838.06;;;-0.08;77.79
64298;BME280;50639;53.270;7.956;2023-04-06T05:24:37;101841.91;;;0.01;77.01
64298;BME280;50639;53.270;7.956;2023-04-06T05:27:05;101832.81;;;0.07;77.05
64298;BME280;50639;53.270;7.956;2023-04-06T05:29:33;101839.44;;;0.12;77.06
64298;BME280;50639;53.270;7.956;2023-04-06T05:31:59;101839.44;;;0.12;77.06
64298;BME280;50639;53.270;7.956;2023-04-06T05:34:25;101837.47;;;0.16;77.35
64298;BME280;50639;53.270;7.956;2023-04-06T05:36:51;101832.66;;;0.22;77.17
64298;BME280;50639;53.270;7.956;2023-04-06T05:39:20;101830.47;;;0.29;76.82
64298;BME280;50639;53.270;7.956;2023-04-06T05:41:50;101831.66;;;0.37;76.42
64298;BME280;50639;53.270;7.956;2023-04-06T05:44:24;101824.34;;;0.43;76.12
64298;BME280;50639;53.270;7.956;2023-04-06T05:46:59;101830.88;;;0.50;75.68
64298;BME280;50639;53.270;7.956;2023-04-06T05:49:26;101821.94;;;0.52;75.36
64298;BME280;50639;53.270;7.956;2023-04-06T05:51:52;101833.66;;;0.61;75.08
64298;BME280;50639;53.270;7.956;2023-04-06T05:54:19;101828.81;;;0.67;74.91
64298;BME280;50639;53.270;7.956;2023-04-06T05:56:45;101831.03;;;0.73;75.04
64298;BME280;50639;53.270;7.956;2023-04-06T05:59:11;101828.19;;;0.77;75.04
64298;BME280;50639;53.270;7.956;2023-04-06T06:01:38;101824.31;;;0.82;74.71
64298;BME280;50639;53.270;7.956;2023-04-06T06:04:05;101822.31;;;0.86;74.73
64298;BME280;50639;53.270;7.956;2023-04-06T06:06:34;101826.31;;;0.91;74.81
64298;BME280;50639;53.270;7.956;2023-04-06T06:09:10;101821.47;;;0.98;75.07
64298;BME280;50639;53.270;7.956;2023-04-06T06:11:41;101814.56;;;1.09;74.63
64298;BME280;50639;53.270;7.956;2023-04-06T06:14:08;101817.59;;;1.16;74.39
64298;BME280;50639;53.270;7.956;2023-04-06T06:16:39;101805.59;;;1.25;73.43
64298;BME280;50639;53.270;7.956;2023-04-06T06:19:06;101804.84;;;1.35;72.82
64298;BME280;50639;53.270;7.956;2023-04-06T06:21:31;101806.94;;;1.43;72.35
64298;BME280;50639;53.270;7.956;2023-04-06T06:23:57;101808.84;;;1.54;71.90
64298;BME280;50639;53.270;7.956;2023-04-06T06:26:23;101814.28;;;1.63;71.38
64298;BME280;50639;53.270;7.956;2023-04-06T06:28:49;101805.66;;;1.74;72.39
64298;BME280;50639;53.270;7.956;2023-04-06T06:31:15;101805.09;;;1.81;71.43
64298;BME280;50639;53.270;7.956;2023-04-06T06:33:42;101804.44;;;1.91;70.70
64298;BME280;50639;53.270;7.956;2023-04-06T06:36:08;101798.03;;;2.06;70.36
64298;BME280;50639;53.270;7.956;2023-04-06T06:38:33;101801.59;;;2.17;70.35
64298;BME280;50639;53.270;7.956;2023-04-06T06:40:59;101801.69;;;2.40;70.62
64298;BME280;50639;53.270;7.956;2023-04-06T06:43:28;101798.81;;;2.43;70.38
64298;BME280;50639;53.270;7.956;2023-04-06T06:46:11;101807.84;;;2.51;67.34
64298;BME280;50639;53.270;7.956;2023-04-06T06:48:39;101808.00;;;2.61;67.88
64298;BME280;50639;53.270;7.956;2023-04-06T06:51:04;101806.59;;;2.68;67.27
64298;BME280;50639;53.270;7.956;2023-04-06T06:53:29;101800.72;;;2.76;66.44
64298;BME280;50639;53.270;7.956;2023-04-06T06:55:55;101790.44;;;2.84;66.41
64298;BME280;50639;53.270;7.956;2023-04-06T06:58:22;101796.69;;;2.94;65.63
64298;BME280;50639;53.270;7.956;2023-04-06T07:00:47;101795.88;;;3.05;66.28
64298;BME280;50639;53.270;7.956;2023-04-06T07:03:13;101797.69;;;3.15;65.63
64298;BME280;50639;53.270;7.956;2023-04-06T07:05:39;101797.22;;;3.21;64.78
64298;BME280;50639;53.270;7.956;2023-04-06T07:08:10;101792.41;;;3.37;65.14
64298;BME280;50639;53.270;7.956;2023-04-06T07:10:35;101800.47;;;3.47;63.28
64298;BME280;50639;53.270;7.956;2023-04-06T07:13:01;101799.25;;;3.62;63.37
64298;BME280;50639;53.270;7.956;2023-04-06T07:15:26;101795.88;;;3.71;62.92
64298;BME280;50639;53.270;7.956;2023-04-06T07:17:52;101796.72;;;3.83;62.24
64298;BME280;50639;53.270;7.956;2023-04-06T07:20:20;101791.53;;;3.93;61.06
64298;BME280;50639;53.270;7.956;2023-04-06T07:22:46;101791.50;;;4.04;60.43
64298;BME280;50639;53.270;7.956;2023-04-06T07:25:11;101786.88;;;4.17;61.51
64298;BME280;50639;53.270;7.956;2023-04-06T07:27:40;101784.09;;;4.30;60.37
64298;BME280;50639;53.270;7.956;2023-04-06T07:30:06;101785.81;;;4.40;60.55
64298;BME280;50639;53.270;7.956;2023-04-06T07:32:33;101787.22;;;4.56;60.60
64298;BME280;50639;53.270;7.956;2023-04-06T07:34:59;101778.63;;;4.63;58.19
64298;BME280;50639;53.270;7.956;2023-04-06T07:37:25;101776.19;;;4.71;58.58
64298;BME280;50639;53.270;7.956;2023-04-06T07:39:51;101777.34;;;4.78;56.82
64298;BME280;50639;53.270;7.956;2023-04-06T07:42:17;101775.97;;;4.84;56.86
64298;BME280;50639;53.270;7.956;2023-04-06T07:44:43;101782.88;;;4.96;56.84
64298;BME280;50639;53.270;7.956;2023-04-06T07:47:10;101788.38;;;5.04;57.25
64298;BME280;50639;53.270;7.956;2023-04-06T07:49:36;101778.28;;;5.19;55.72
64298;BME280;50639;53.270;7.956;2023-04-06T07:52:02;101774.81;;;5.28;56.24
64298;BME280;50639;53.270;7.956;2023-04-06T07:54:29;101773.34;;;5.35;54.95
64298;BME280;50639;53.270;7.956;2023-04-06T07:56:54;101768.88;;;5.36;54.05
64298;BME280;50639;53.270;7.956;2023-04-06T07:59:20;101775.19;;;5.44;54.99
64298;BME280;50639;53.270;7.956;2023-04-06T08:01:45;101763.63;;;5.55;53.54
64298;BME280;50639;53.270;7.956;2023-04-06T08:04:11;101769.09;;;5.63;54.21
64298;BME280;50639;53.270;7.956;2023-04-06T08:06:37;101772.47;;;5.75;53.88
64298;BME280;50639;53.270;7.956;2023-04-06T08:09:02;101763.31;;;5.79;53.90
64298;BME280;50639;53.270;7.956;2023-04-06T08:11:28;101768.09;;;5.94;53.78
64298;BME280;50639;53.270;7.956;2023-04-06T08:13:54;101762.69;;;6.06;54.55
64298;BME280;50639;53.270;7.956;2023-04-06T08:16:22;101758.19;;;6.16;54.37
64298;BME280;50639;53.270;7.956;2023-04-06T08:18:48;101767.97;;;6.25;54.56
64298;BME280;50639;53.270;7.956;2023-04-06T08:21:13;101766.59;;;6.40;54.79
64298;BME280;50639;53.270;7.956;2023-04-06T08:23:39;101761.69;;;6.45;53.89
64298;BME280;50639;53.270;7.956;2023-04-06T08:26:04;101763.09;;;6.49;53.34
64298;BME280;50639;53.270;7.956;2023-04-06T08:28:30;101755.97;;;6.59;53.69
64298;BME280;50639;53.270;7.956;2023-04-06T08:30:55;101756.63;;;6.71;53.49
64298;BME280;50639;53.270;7.956;2023-04-06T08:33:21;101748.53;;;6.82;53.13
64298;BME280;50639;53.270;7.956;2023-04-06T08:35:47;101745.72;;;6.93;52.33
64298;BME280;50639;53.270;7.956;2023-04-06T08:38:12;101743.41;;;7.08;51.17
64298;BME280;50639;53.270;7.956;2023-04-06T08:40:38;101744.59;;;7.23;49.07
64298;BME280;50639;53.270;7.956;2023-04-06T08:43:06;101736.63;;;7.23;49.31
64298;BME280;50639;53.270;7.956;2023-04-06T08:45:34;101743.59;;;7.34;49.32
64298;BME280;50639;53.270;7.956;2023-04-06T08:48:02;101740.06;;;7.43;48.22
64298;BME280;50639;53.270;7.956;2023-04-06T08:50:29;101738.34;;;7.51;48.47
64298;BME280;50639;53.270;7.956;2023-04-06T08:52:55;101740.72;;;7.54;48.68
64298;BME280;50639;53.270;7.956;2023-04-06T08:55:21;101727.50;;;7.63;47.41
64298;BME280;50639;53.270;7.956;2023-04-06T08:57:48;101737.69;;;7.67;46.74
64298;BME280;50639;53.270;7.956;2023-04-06T09:00:14;101735.56;;;7.71;46.54
64298;BME280;50639;53.270;7.956;2023-04-06T09:02:42;101733.53;;;7.82;46.81
64298;BME280;50639;53.270;7.956;2023-04-06T09:05:09;101737.13;;;7.91;47.58
64298;BME280;50639;53.270;7.956;2023-04-06T09:07:37;101740.59;;;8.09;48.45
64298;BME280;50639;53.270;7.956;2023-04-06T09:10:04;101730.44;;;8.22;47.32
64298;BME280;50639;53.270;7.956;2023-04-06T09:12:31;101736.22;;;8.18;46.58
64298;BME280;50639;53.270;7.956;2023-04-06T09:14:58;101731.50;;;8.29;46.73
64298;BME280;50639;53.270;7.956;2023-04-06T09:17:31;101730.66;;;8.47;46.32
64298;BME280;50639;53.270;7.956;2023-04-06T09:20:02;101727.59;;;8.34;45.90
64298;BME280;50639;53.270;7.956;2023-04-06T09:22:38;101729.97;;;8.45;45.47
64298;BME280;50639;53.270;7.956;2023-04-06T09:25:05;101733.66;;;8.44;45.46
64298;BME280;50639;53.270;7.956;2023-04-06T09:27:33;101735.97;;;8.64;45.55
64298;BME280;50639;53.270;7.956;2023-04-06T09:30:04;101730.84;;;8.71;44.35
64298;BME280;50639;53.270;7.956;2023-04-06T09:32:31;101728.97;;;8.63;43.80
64298;BME280;50639;53.270;7.956;2023-04-06T09:35:09;101729.19;;;8.70;45.03
64298;BME280;50639;53.270;7.956;2023-04-06T09:37:35;101724.91;;;8.77;45.10
64298;BME280;50639;53.270;7.956;2023-04-06T09:40:07;101728.31;;;8.87;44.68
64298;BME280;50639;53.270;7.956;2023-04-06T09:42:34;101729.19;;;8.96;44.35
64298;BME280;50639;53.270;7.956;2023-04-06T09:45:01;101728.75;;;9.09;44.10
64298;BME280;50639;53.270;7.956;2023-04-06T09:47:26;101730.28;;;9.11;43.40
64298;BME280;50639;53.270;7.956;2023-04-06T09:49:57;101721.78;;;9.16;44.25
64298;BME280;50639;53.270;7.956;2023-04-06T09:52:31;101731.88;;;9.30;43.85
64298;BME280;50639;53.270;7.956;2023-04-06T09:55:02;101724.59;;;9.40;43.67
64298;BME280;50639;53.270;7.956;2023-04-06T09:57:48;101720.13;;;9.49;44.55
64298;BME280;50639;53.270;7.956;2023-04-06T10:00:17;101722.16;;;9.63;44.43
64298;BME280;50639;53.270;7.956;2023-04-06T10:02:58;101718.69;;;9.78;43.26
64298;BME280;50639;53.270;7.956;2023-04-06T10:05:32;101710.00;;;9.76;42.90
64298;BME280;50639;53.270;7.956;2023-04-06T10:08:03;101706.03;;;9.80;44.02
64298;BME280;50639;53.270;7.956;2023-04-06T10:10:31;101702.72;;;9.95;42.72
64298;BME280;50639;53.270;7.956;2023-04-06T10:12:56;101701.69;;;9.79;42.14
64298;BME280;50639;53.270;7.956;2023-04-06T10:15:23;101694.22;;;9.91;42.07
64298;BME280;50639;53.270;7.956;2023-04-06T10:17:49;101695.53;;;9.95;42.27
64298;BME280;50639;53.270;7.956;2023-04-06T10:20:22;101697.75;;;10.16;43.70
64298;BME280;50639;53.270;7.956;2023-04-06T10:22:51;101692.41;;;10.40;43.23
64298;BME280;50639;53.270;7.956;2023-04-06T10:25:32;101697.59;;;10.58;42.50
64298;BME280;50639;53.270;7.956;2023-04-06T10:28:08;101700.25;;;10.50;39.89
64298;BME280;50639;53.270;7.956;2023-04-06T10:30:35;101703.91;;;10.65;41.62
64298;BME280;50639;53.270;7.956;2023-04-06T10:33:12;101698.38;;;10.75;39.42
64298;BME280;50639;53.270;7.956;2023-04-06T10:35:38;101687.03;;;10.81;40.74
64298;BME280;50639;53.270;7.956;2023-04-06T10:38:05;101699.03;;;10.85;38.46
64298;BME280;50639;53.270;7.956;2023-04-06T10:40:30;101690.03;;;10.78;37.63
64298;BME280;50639;53.270;7.956;2023-04-06T10:43:13;101691.75;;;10.63;34.93
64298;BME280;50639;53.270;7.956;2023-04-06T10:45:40;101684.72;;;10.70;37.03
64298;BME280;50639;53.270;7.956;2023-04-06T10:48:16;101686.84;;;10.82;36.92
64298;BME280;50639;53.270;7.956;2023-04-06T10:50:48;101682.84;;;10.86;37.25
64298;BME280;50639;53.270;7.956;2023-04-06T10:53:25;101680.84;;;10.88;37.14
64298;BME280;50639;53.270;7.956;2023-04-06T10:55:52;101674.28;;;10.99;36.15
64298;BME280;50639;53.270;7.956;2023-04-06T10:58:19;101669.38;;;11.11;38.40
64298;BME280;50639;53.270;7.956;2023-04-06T11:00:47;101670.78;;;11.38;38.28
64298;BME280;50639;53.270;7.956;2023-04-06T11:03:12;101671.13;;;11.35;38.04
64298;BME280;50639;53.270;7.956;2023-04-06T11:05:38;101659.34;;;11.52;37.29
64298;BME280;50639;53.270;7.956;2023-04-06T11:08:04;101668.50;;;11.57;36.39
64298;BME280;50639;53.270;7.956;2023-04-06T11:10:29;101673.19;;;11.55;36.20
64298;BME280;50639;53.270;7.956;2023-04-06T11:12:56;101658.53;;;11.74;36.76
64298;BME280;50639;53.270;7.956;2023-04-06T11:15:22;101663.03;;;11.74;34.13
64298;BME280;50639;53.270;7.956;2023-04-06T11:17:47;101659.88;;;11.70;35.71
64298;BME280;50639;53.270;7.956;2023-04-06T11:20:14;101656.38;;;12.00;34.42
64298;BME280;50639;53.270;7.956;2023-04-06T11:22:52;101662.72;;;11.99;33.07
64298;BME280;50639;53.270;7.956;2023-04-06T11:25:18;101658.38;;;11.98;34.12
64298;BME280;50639;53.270;7.956;2023-04-06T11:27:47;101653.84;;;12.22;35.11
64298;BME280;50639;53.270;7.956;2023-04-06T11:30:14;101647.88;;;12.34;34.00
64298;BME280;50639;53.270;7.956;2023-04-06T11:32:40;101652.78;;;12.31;34.46
64298;BME280;50639;53.270;7.956;2023-04-06T11:35:10;101661.34;;;12.41;34.24
64298;BME280;50639;53.270;7.956;2023-04-06T11:37:36;101644.00;;;12.37;32.06
64298;BME280;50639;53.270;7.956;2023-04-06T11:40:02;101652.00;;;12.22;31.32
64298;BME280;50639;53.270;7.956;2023-04-06T11:42:28;101643.59;;;12.25;30.27
64298;BME280;50639;53.270;7.956;2023-04-06T11:44:56;101636.13;;;12.35;31.64
64298;BME280;50639;53.270;7.956;2023-04-06T11:47:30;101648.53;;;12.51;31.32
64298;BME280;50639;53.270;7.956;2023-04-06T11:50:05;101638.00;;;12.50;31.63
64298;BME280;50639;53.270;7.956;2023-04-06T11:52:31;101637.16;;;12.49;29.90
64298;BME280;50639;53.270;7.956;2023-04-06T11:54:56;101632.69;;;12.27;30.87
64298;BME280;50639;53.270;7.956;2023-04-06T11:57:23;101640.25;;;12.23;30.56
64298;BME280;50639;53.270;7.956;2023-04-06T11:59:53;101639.56;;;12.44;31.88
64298;BME280;50639;53.270;7.956;2023-04-06T12:02:19;101630.69;;;12.58;30.70
64298;BME280;50639;53.270;7.956;2023-04-06T12:04:45;101631.09;;;12.70;32.04
64298;BME280;50639;53.270;7.956;2023-04-06T12:07:10;101619.34;;;12.71;32.20
64298;BME280;50639;53.270;7.956;2023-04-06T12:09:36;101626.47;;;12.78;31.67
64298;BME280;50639;53.270;7.956;2023-04-06T12:12:02;101629.16;;;12.78;31.13
64298;BME280;50639;53.270;7.956;2023-04-06T12:14:28;101627.22;;;12.87;31.04
64298;BME280;50639;53.270;7.956;2023-04-06T12:16:55;101627.75;;;13.12;31.70
64298;BME280;50639;53.270;7.956;2023-04-06T12:19:21;101624.72;;;13.15;31.97
64298;BME280;50639;53.270;7.956;2023-04-06T12:21:54;101623.88;;;13.00;32.25
64298;BME280;50639;53.270;7.956;2023-04-06T12:24:19;101616.94;;;13.20;31.80
64298;BME280;50639;53.270;7.956;2023-04-06T12:26:45;101622.00;;;13.30;32.94
64298;BME280;50639;53.270;7.956;2023-04-06T12:29:11;101617.50;;;13.51;31.58
64298;BME280;50639;53.270;7.956;2023-04-06T12:31:38;101606.31;;;13.48;32.15
64298;BME280;50639;53.270;7.956;2023-04-06T12:34:06;101611.63;;;13.41;30.96
64298;BME280;50639;53.270;7.956;2023-04-06T12:36:32;101614.94;;;13.43;32.20
64298;BME280;50639;53.270;7.956;2023-04-06T12:38:58;101615.66;;;13.73;32.01
64298;BME280;50639;53.270;7.956;2023-04-06T12:41:23;101614.31;;;13.84;32.33
64298;BME280;50639;53.270;7.956;2023-04-06T12:43:50;101605.81;;;13.59;30.14
64298;BME280;50639;53.270;7.956;2023-04-06T12:46:16;101611.00;;;13.61;31.44
64298;BME280;50639;53.270;7.956;2023-04-06T12:48:42;101605.56;;;13.54;29.18
64298;BME280;50639;53.270;7.956;2023-04-06T12:51:07;101606.72;;;13.45;29.88
64298;BME280;50639;53.270;7.956;2023-04-06T12:53:34;101605.50;;;13.69;29.74
64298;BME280;50639;53.270;7.956;2023-04-06T12:56:00;101596.28;;;13.56;29.76
64298;BME280;50639;53.270;7.956;2023-04-06T12:58:25;101601.63;;;13.71;30.18
64298;BME280;50639;53.270;7.956;2023-04-06T13:00:57;101605.56;;;13.54;29.76